sensor_id;sensor_type;location;lat;lon;timestamp;P1;durP1;ratioP1;P2;durP2;ratioP2
16954;SDS011;8594;52.052;8.354;2023-02-28T00:00:35;12.80;;;4.50;;
16954;SDS011;8594;52.052;8.354;2023-02-28T00:03:04;11.13;;;5.00;;
16954;SDS011;8594;52.052;8.354;2023-02-28T00:05:32;8.17;;;4.47;;
16954;SDS011;8594;52.052;8.354;2023-02-28T00:07:59;11.50;;;4.30;;
16954;SDS011;8594;52.052;8.354;2023-02-28T00:10:28;10.70;;;4.90;;
16954;SDS011;8594;52.052;8.354;2023-02-28T00:12:59;8.00;;;3.87;;
16954;SDS011;8594;52.052;8.354;2023-02-28T00:15:28;14.07;;;4.47;;
16954;SDS011;8594;52.052;8.354;2023-02-28T00:17:54;7.47;;;4.33;;
16954;SDS011;8594;52.052;8.354;2023-02-28T00:20:21;10.23;;;4.50;;
16954;SDS011;8594;52.052;8.354;2023-02-28T00:22:49;7.73;;;4.40;;
16954;SDS011;8594;52.052;8.354;2023-02-28T00:25:20;9.07;;;4.53;;
16954;SDS011;8594;52.052;8.354;2023-02-28T00:27:50;9.90;;;5.10;;
16954;SDS011;8594;52.052;8.354;2023-02-28T00:30:18;9.63;;;4.97;;
16954;SDS011;8594;52.052;8.354;2023-02-28T00:32:47;8.10;;;4.63;;
16954;SDS011;8594;52.052;8.354;2023-02-28T00:35:14;11.60;;;4.90;;
16954;SDS011;8594;52.052;8.354;2023-02-28T00:37:42;9.10;;;4.90;;
16954;SDS011;8594;52.052;8.354;2023-02-28T00:40:09;10.17;;;4.93;;
16954;SDS011;8594;52.052;8.354;2023-02-28T00:42:38;11.00;;;5.20;;
16954;SDS011;8594;52.052;8.354;2023-02-28T00:45:07;11.40;;;4.50;;
16954;SDS011;8594;52.052;8.354;2023-02-28T00:47:34;11.17;;;4.57;;
16954;SDS011;8594;52.052;8.354;2023-02-28T00:50:02;8.27;;;5.10;;
16954;SDS011;8594;52.052;8.354;2023-02-28T00:52:30;17.83;;;5.80;;
16954;SDS011;8594;52.052;8.354;2023-02-28T00:54:57;11.43;;;5.87;;
16954;SDS011;8594;52.052;8.354;2023-02-28T00:57:24;13.97;;;5.97;;
16954;SDS011;8594;52.052;8.354;2023-02-28T00:59:51;12.97;;;5.63;;
16954;SDS011;8594;52.052;8.354;2023-02-28T01:02:20;14.77;;;5.93;;
16954;SDS011;8594;52.052;8.354;2023-02-28T01:04:47;13.27;;;5.80;;
16954;SDS011;8594;52.052;8.354;2023-02-28T01:07:15;12.70;;;6.50;;
16954;SDS011;8594;52.052;8.354;2023-02-28T01:09:42;14.73;;;6.47;;
16954;SDS011;8594;52.052;8.354;2023-02-28T01:12:08;12.17;;;6.27;;
16954;SDS011;8594;52.052;8.354;2023-02-28T01:14:36;17.13;;;6.93;;
16954;SDS011;8594;52.052;8.354;2023-02-28T01:17:04;13.90;;;6.67;;
16954;SDS011;8594;52.052;8.354;2023-02-28T01:19:32;12.03;;;6.37;;
16954;SDS011;8594;52.052;8.354;2023-02-28T01:22:00;12.70;;;6.60;;
16954;SDS011;8594;52.052;8.354;2023-02-28T01:24:28;13.13;;;6.70;;
16954;SDS011;8594;52.052;8.354;2023-02-28T01:26:55;11.57;;;6.40;;
16954;SDS011;8594;52.052;8.354;2023-02-28T01:29:22;11.17;;;6.00;;
16954;SDS011;8594;52.052;8.354;2023-02-28T01:31:49;14.73;;;6.20;;
16954;SDS011;8594;52.052;8.354;2023-02-28T01:34:16;13.50;;;6.13;;
16954;SDS011;8594;52.052;8.354;2023-02-28T01:36:45;17.07;;;7.20;;
16954;SDS011;8594;52.052;8.354;2023-02-28T01:39:12;16.93;;;6.20;;
16954;SDS011;8594;52.052;8.354;2023-02-28T01:41:39;9.93;;;5.30;;
16954;SDS011;8594;52.052;8.354;2023-02-28T01:44:07;13.20;;;5.80;;
16954;SDS011;8594;52.052;8.354;2023-02-28T01:47:23;11.67;;;5.57;;
16954;SDS011;8594;52.052;8.354;2023-02-28T01:49:54;11.17;;;5.50;;
16954;SDS011;8594;52.052;8.354;2023-02-28T01:52:23;10.60;;;5.57;;
16954;SDS011;8594;52.052;8.354;2023-02-28T01:54:52;15.33;;;6.37;;
16954;SDS011;8594;52.052;8.354;2023-02-28T01:57:23;13.23;;;5.80;;
16954;SDS011;8594;52.052;8.354;2023-02-28T01:59:56;12.17;;;5.40;;
16954;SDS011;8594;52.052;8.354;2023-02-28T02:02:27;14.07;;;5.67;;
16954;SDS011;8594;52.052;8.354;2023-02-28T02:04:55;10.63;;;5.93;;
16954;SDS011;8594;52.052;8.354;2023-02-28T02:07:30;10.40;;;5.67;;
16954;SDS011;8594;52.052;8.354;2023-02-28T02:10:03;19.37;;;5.50;;
16954;SDS011;8594;52.052;8.354;2023-02-28T02:12:42;14.40;;;5.07;;
16954;SDS011;8594;52.052;8.354;2023-02-28T02:15:39;13.77;;;4.67;;
16954;SDS011;8594;52.052;8.354;2023-02-28T02:18:14;13.87;;;5.10;;
16954;SDS011;8594;52.052;8.354;2023-02-28T02:21:02;10.90;;;5.07;;
16954;SDS011;8594;52.052;8.354;2023-02-28T02:27:10;11.43;;;5.00;;
16954;SDS011;8594;52.052;8.354;2023-02-28T02:29:55;11.10;;;5.50;;
16954;SDS011;8594;52.052;8.354;2023-02-28T02:33:23;8.27;;;4.40;;
16954;SDS011;8594;52.052;8.354;2023-02-28T02:36:14;10.13;;;4.43;;
16954;SDS011;8594;52.052;8.354;2023-02-28T02:38:50;8.57;;;3.97;;
16954;SDS011;8594;52.052;8.354;2023-02-28T02:41:26;7.00;;;4.07;;
16954;SDS011;8594;52.052;8.354;2023-02-28T02:44:02;10.50;;;3.77;;
16954;SDS011;8594;52.052;8.354;2023-02-28T02:46:38;8.83;;;4.17;;
16954;SDS011;8594;52.052;8.354;2023-02-28T02:49:11;9.00;;;4.47;;
16954;SDS011;8594;52.052;8.354;2023-02-28T02:51:43;7.03;;;3.90;;
16954;SDS011;8594;52.052;8.354;2023-02-28T02:54:14;8.47;;;4.30;;
16954;SDS011;8594;52.052;8.354;2023-02-28T02:56:47;7.33;;;4.10;;
16954;SDS011;8594;52.052;8.354;2023-02-28T02:59:17;8.17;;;3.67;;
16954;SDS011;8594;52.052;8.354;2023-02-28T03:01:49;5.77;;;3.73;;
16954;SDS011;8594;52.052;8.354;2023-02-28T03:04:21;5.60;;;3.50;;
16954;SDS011;8594;52.052;8.354;2023-02-28T03:06:52;7.17;;;3.37;;
16954;SDS011;8594;52.052;8.354;2023-02-28T03:09:20;14.13;;;3.67;;
16954;SDS011;8594;52.052;8.354;2023-02-28T03:11:47;10.23;;;3.40;;
16954;SDS011;8594;52.052;8.354;2023-02-28T03:14:25;5.60;;;3.40;;
16954;SDS011;8594;52.052;8.354;2023-02-28T03:17:22;6.10;;;3.80;;
16954;SDS011;8594;52.052;8.354;2023-02-28T03:20:04;8.20;;;3.83;;
16954;SDS011;8594;52.052;8.354;2023-02-28T03:22:47;10.37;;;3.87;;
16954;SDS011;8594;52.052;8.354;2023-02-28T03:25:29;11.17;;;3.90;;
16954;SDS011;8594;52.052;8.354;2023-02-28T03:28:06;6.57;;;3.10;;
16954;SDS011;8594;52.052;8.354;2023-02-28T03:30:42;6.17;;;3.63;;
16954;SDS011;8594;52.052;8.354;2023-02-28T03:33:17;6.20;;;3.47;;
16954;SDS011;8594;52.052;8.354;2023-02-28T03:35:50;6.30;;;3.50;;
16954;SDS011;8594;52.052;8.354;2023-02-28T03:38:24;6.43;;;3.87;;
16954;SDS011;8594;52.052;8.354;2023-02-28T03:40:58;6.67;;;3.53;;
16954;SDS011;8594;52.052;8.354;2023-02-28T03:43:33;6.33;;;3.73;;
16954;SDS011;8594;52.052;8.354;2023-02-28T03:46:07;7.77;;;3.87;;
16954;SDS011;8594;52.052;8.354;2023-02-28T03:48:42;5.30;;;3.30;;
16954;SDS011;8594;52.052;8.354;2023-02-28T03:51:14;6.33;;;3.60;;
16954;SDS011;8594;52.052;8.354;2023-02-28T03:53:49;5.83;;;3.23;;
16954;SDS011;8594;52.052;8.354;2023-02-28T03:56:24;6.20;;;2.90;;
16954;SDS011;8594;52.052;8.354;2023-02-28T03:58:58;6.73;;;3.17;;
16954;SDS011;8594;52.052;8.354;2023-02-28T04:01:31;9.50;;;3.40;;
16954;SDS011;8594;52.052;8.354;2023-02-28T04:04:03;4.97;;;3.47;;
16954;SDS011;8594;52.052;8.354;2023-02-28T04:06:31;7.07;;;3.37;;
16954;SDS011;8594;52.052;8.354;2023-02-28T04:09:01;7.00;;;3.20;;
16954;SDS011;8594;52.052;8.354;2023-02-28T04:11:31;8.37;;;4.00;;
16954;SDS011;8594;52.052;8.354;2023-02-28T04:14:01;8.07;;;3.27;;
16954;SDS011;8594;52.052;8.354;2023-02-28T04:16:28;5.63;;;3.63;;
16954;SDS011;8594;52.052;8.354;2023-02-28T04:18:55;4.57;;;3.30;;
16954;SDS011;8594;52.052;8.354;2023-02-28T04:21:26;6.47;;;3.20;;
16954;SDS011;8594;52.052;8.354;2023-02-28T04:23:54;6.93;;;3.40;;
16954;SDS011;8594;52.052;8.354;2023-02-28T04:26:22;11.37;;;3.83;;
16954;SDS011;8594;52.052;8.354;2023-02-28T04:28:49;8.63;;;3.60;;
16954;SDS011;8594;52.052;8.354;2023-02-28T04:31:16;6.70;;;3.97;;
16954;SDS011;8594;52.052;8.354;2023-02-28T04:33:42;9.07;;;3.70;;
16954;SDS011;8594;52.052;8.354;2023-02-28T04:36:09;7.03;;;4.03;;
16954;SDS011;8594;52.052;8.354;2023-02-28T04:38:37;8.80;;;3.40;;
16954;SDS011;8594;52.052;8.354;2023-02-28T04:41:04;5.20;;;3.57;;
16954;SDS011;8594;52.052;8.354;2023-02-28T04:43:33;6.43;;;4.07;;
16954;SDS011;8594;52.052;8.354;2023-02-28T04:46:00;8.10;;;3.50;;
16954;SDS011;8594;52.052;8.354;2023-02-28T04:48:31;6.90;;;3.97;;
16954;SDS011;8594;52.052;8.354;2023-02-28T04:51:00;7.90;;;3.60;;
16954;SDS011;8594;52.052;8.354;2023-02-28T04:53:28;9.20;;;3.50;;
16954;SDS011;8594;52.052;8.354;2023-02-28T04:55:55;9.33;;;4.73;;
16954;SDS011;8594;52.052;8.354;2023-02-28T04:58:29;6.80;;;4.10;;
16954;SDS011;8594;52.052;8.354;2023-02-28T05:01:02;8.90;;;4.27;;
16954;SDS011;8594;52.052;8.354;2023-02-28T05:03:37;10.90;;;3.80;;
16954;SDS011;8594;52.052;8.354;2023-02-28T05:06:05;8.00;;;3.87;;
16954;SDS011;8594;52.052;8.354;2023-02-28T05:08:32;14.20;;;4.17;;
16954;SDS011;8594;52.052;8.354;2023-02-28T05:10:59;7.30;;;3.97;;
16954;SDS011;8594;52.052;8.354;2023-02-28T05:13:27;8.00;;;3.70;;
16954;SDS011;8594;52.052;8.354;2023-02-28T05:15:54;6.57;;;3.70;;
16954;SDS011;8594;52.052;8.354;2023-02-28T05:18:23;6.83;;;3.73;;
16954;SDS011;8594;52.052;8.354;2023-02-28T05:20:50;12.73;;;4.07;;
16954;SDS011;8594;52.052;8.354;2023-02-28T05:23:17;11.07;;;4.43;;
16954;SDS011;8594;52.052;8.354;2023-02-28T05:25:47;10.23;;;4.23;;
16954;SDS011;8594;52.052;8.354;2023-02-28T05:28:14;10.80;;;4.03;;
16954;SDS011;8594;52.052;8.354;2023-02-28T05:30:41;11.13;;;4.90;;
16954;SDS011;8594;52.052;8.354;2023-02-28T05:33:09;7.87;;;4.23;;
16954;SDS011;8594;52.052;8.354;2023-02-28T05:35:38;17.07;;;4.10;;
16954;SDS011;8594;52.052;8.354;2023-02-28T05:38:07;16.97;;;5.80;;
16954;SDS011;8594;52.052;8.354;2023-02-28T05:40:34;12.53;;;4.13;;
16954;SDS011;8594;52.052;8.354;2023-02-28T05:43:03;7.40;;;4.23;;
16954;SDS011;8594;52.052;8.354;2023-02-28T05:45:30;7.33;;;4.00;;
16954;SDS011;8594;52.052;8.354;2023-02-28T05:47:57;10.70;;;5.03;;
16954;SDS011;8594;52.052;8.354;2023-02-28T05:50:24;8.47;;;4.57;;
16954;SDS011;8594;52.052;8.354;2023-02-28T05:52:52;7.50;;;4.50;;
16954;SDS011;8594;52.052;8.354;2023-02-28T05:55:19;9.70;;;4.27;;
16954;SDS011;8594;52.052;8.354;2023-02-28T05:57:46;8.67;;;4.83;;
16954;SDS011;8594;52.052;8.354;2023-02-28T06:00:13;10.00;;;3.40;;
16954;SDS011;8594;52.052;8.354;2023-02-28T06:02:42;13.80;;;4.23;;
16954;SDS011;8594;52.052;8.354;2023-02-28T06:05:10;12.53;;;4.23;;
16954;SDS011;8594;52.052;8.354;2023-02-28T06:07:41;10.33;;;4.43;;
16954;SDS011;8594;52.052;8.354;2023-02-28T06:10:10;11.63;;;3.40;;
16954;SDS011;8594;52.052;8.354;2023-02-28T06:12:38;10.37;;;4.57;;
16954;SDS011;8594;52.052;8.354;2023-02-28T06:15:07;13.67;;;6.60;;
16954;SDS011;8594;52.052;8.354;2023-02-28T06:17:38;13.03;;;5.50;;
16954;SDS011;8594;52.052;8.354;2023-02-28T06:20:06;15.40;;;5.53;;
16954;SDS011;8594;52.052;8.354;2023-02-28T06:22:37;16.00;;;4.30;;
16954;SDS011;8594;52.052;8.354;2023-02-28T06:25:05;6.03;;;3.40;;
16954;SDS011;8594;52.052;8.354;2023-02-28T06:27:34;11.80;;;4.03;;
16954;SDS011;8594;52.052;8.354;2023-02-28T06:30:01;12.83;;;4.30;;
16954;SDS011;8594;52.052;8.354;2023-02-28T06:32:28;8.00;;;4.20;;
16954;SDS011;8594;52.052;8.354;2023-02-28T06:34:55;13.83;;;4.17;;
16954;SDS011;8594;52.052;8.354;2023-02-28T06:37:23;9.60;;;4.03;;
16954;SDS011;8594;52.052;8.354;2023-02-28T06:39:51;9.37;;;4.70;;
16954;SDS011;8594;52.052;8.354;2023-02-28T06:42:18;7.60;;;4.60;;
16954;SDS011;8594;52.052;8.354;2023-02-28T06:44:46;9.27;;;4.63;;
16954;SDS011;8594;52.052;8.354;2023-02-28T06:47:13;9.60;;;4.70;;
16954;SDS011;8594;52.052;8.354;2023-02-28T06:49:39;17.83;;;5.57;;
16954;SDS011;8594;52.052;8.354;2023-02-28T06:52:06;11.47;;;5.03;;
16954;SDS011;8594;52.052;8.354;2023-02-28T06:54:35;11.43;;;5.23;;
16954;SDS011;8594;52.052;8.354;2023-02-28T06:57:03;10.30;;;6.13;;
16954;SDS011;8594;52.052;8.354;2023-02-28T06:59:29;11.87;;;5.37;;
16954;SDS011;8594;52.052;8.354;2023-02-28T07:01:58;14.43;;;5.80;;
16954;SDS011;8594;52.052;8.354;2023-02-28T07:04:25;11.93;;;5.60;;
16954;SDS011;8594;52.052;8.354;2023-02-28T07:06:52;8.43;;;5.53;;
16954;SDS011;8594;52.052;8.354;2023-02-28T07:09:21;11.33;;;5.77;;
16954;SDS011;8594;52.052;8.354;2023-02-28T07:11:48;15.43;;;6.03;;
16954;SDS011;8594;52.052;8.354;2023-02-28T07:14:14;10.47;;;5.17;;
16954;SDS011;8594;52.052;8.354;2023-02-28T07:16:41;10.03;;;4.43;;
16954;SDS011;8594;52.052;8.354;2023-02-28T07:19:11;15.50;;;5.97;;
16954;SDS011;8594;52.052;8.354;2023-02-28T07:21:41;7.93;;;5.13;;
16954;SDS011;8594;52.052;8.354;2023-02-28T07:24:08;10.73;;;5.50;;
16954;SDS011;8594;52.052;8.354;2023-02-28T07:26:35;11.80;;;4.77;;
16954;SDS011;8594;52.052;8.354;2023-02-28T07:29:02;9.03;;;5.20;;
16954;SDS011;8594;52.052;8.354;2023-02-28T07:31:29;11.43;;;5.40;;
16954;SDS011;8594;52.052;8.354;2023-02-28T07:33:56;7.00;;;4.60;;
16954;SDS011;8594;52.052;8.354;2023-02-28T07:36:24;24.23;;;14.70;;
16954;SDS011;8594;52.052;8.354;2023-02-28T07:38:51;8.23;;;3.97;;
16954;SDS011;8594;52.052;8.354;2023-02-28T07:41:18;9.03;;;3.77;;
16954;SDS011;8594;52.052;8.354;2023-02-28T07:43:48;6.93;;;4.00;;
16954;SDS011;8594;52.052;8.354;2023-02-28T07:46:16;12.47;;;4.07;;
16954;SDS011;8594;52.052;8.354;2023-02-28T07:48:45;9.40;;;3.80;;
16954;SDS011;8594;52.052;8.354;2023-02-28T07:51:12;7.67;;;3.80;;
16954;SDS011;8594;52.052;8.354;2023-02-28T07:53:40;6.70;;;4.17;;
16954;SDS011;8594;52.052;8.354;2023-02-28T07:56:07;5.73;;;3.50;;
16954;SDS011;8594;52.052;8.354;2023-02-28T07:58:35;6.70;;;3.87;;
16954;SDS011;8594;52.052;8.354;2023-02-28T08:01:05;9.67;;;3.60;;
16954;SDS011;8594;52.052;8.354;2023-02-28T08:03:34;7.90;;;4.17;;
16954;SDS011;8594;52.052;8.354;2023-02-28T08:06:01;12.47;;;4.63;;
16954;SDS011;8594;52.052;8.354;2023-02-28T08:08:29;11.37;;;4.33;;
16954;SDS011;8594;52.052;8.354;2023-02-28T08:10:59;7.53;;;4.33;;
16954;SDS011;8594;52.052;8.354;2023-02-28T08:13:27;7.70;;;4.27;;
16954;SDS011;8594;52.052;8.354;2023-02-28T08:15:55;5.97;;;3.77;;
16954;SDS011;8594;52.052;8.354;2023-02-28T08:18:23;6.20;;;3.73;;
16954;SDS011;8594;52.052;8.354;2023-02-28T08:20:50;7.63;;;4.30;;
16954;SDS011;8594;52.052;8.354;2023-02-28T08:23:16;6.80;;;3.50;;
16954;SDS011;8594;52.052;8.354;2023-02-28T08:25:43;7.87;;;3.70;;
16954;SDS011;8594;52.052;8.354;2023-02-28T08:28:12;6.93;;;4.27;;
16954;SDS011;8594;52.052;8.354;2023-02-28T08:30:38;9.80;;;4.60;;
16954;SDS011;8594;52.052;8.354;2023-02-28T08:33:06;5.60;;;3.73;;
16954;SDS011;8594;52.052;8.354;2023-02-28T08:35:34;5.27;;;3.20;;
16954;SDS011;8594;52.052;8.354;2023-02-28T08:38:02;7.07;;;3.47;;
16954;SDS011;8594;52.052;8.354;2023-02-28T08:40:29;6.77;;;2.90;;
16954;SDS011;8594;52.052;8.354;2023-02-28T08:42:56;8.20;;;3.17;;
16954;SDS011;8594;52.052;8.354;2023-02-28T08:45:24;8.07;;;3.40;;
16954;SDS011;8594;52.052;8.354;2023-02-28T08:47:51;8.90;;;3.23;;
16954;SDS011;8594;52.052;8.354;2023-02-28T08:50:20;8.40;;;2.80;;
16954;SDS011;8594;52.052;8.354;2023-02-28T08:52:47;6.47;;;2.77;;
16954;SDS011;8594;52.052;8.354;2023-02-28T08:55:14;4.50;;;2.90;;
16954;SDS011;8594;52.052;8.354;2023-02-28T08:57:41;4.20;;;2.73;;
16954;SDS011;8594;52.052;8.354;2023-02-28T09:00:08;6.60;;;3.00;;
16954;SDS011;8594;52.052;8.354;2023-02-28T09:02:39;4.73;;;2.70;;
16954;SDS011;8594;52.052;8.354;2023-02-28T09:05:09;5.80;;;3.00;;
16954;SDS011;8594;52.052;8.354;2023-02-28T09:07:36;9.07;;;3.60;;
16954;SDS011;8594;52.052;8.354;2023-02-28T09:10:03;5.50;;;3.30;;
16954;SDS011;8594;52.052;8.354;2023-02-28T09:12:32;5.47;;;3.17;;
16954;SDS011;8594;52.052;8.354;2023-02-28T09:15:00;6.60;;;3.77;;
16954;SDS011;8594;52.052;8.354;2023-02-28T09:17:28;5.23;;;3.13;;
16954;SDS011;8594;52.052;8.354;2023-02-28T09:19:56;15.73;;;3.90;;
16954;SDS011;8594;52.052;8.354;2023-02-28T09:22:23;8.67;;;3.70;;
16954;SDS011;8594;52.052;8.354;2023-02-28T09:24:51;5.37;;;3.47;;
16954;SDS011;8594;52.052;8.354;2023-02-28T09:27:17;12.40;;;3.60;;
16954;SDS011;8594;52.052;8.354;2023-02-28T09:29:44;4.37;;;3.10;;
16954;SDS011;8594;52.052;8.354;2023-02-28T09:32:11;6.30;;;3.53;;
16954;SDS011;8594;52.052;8.354;2023-02-28T09:34:38;6.33;;;3.60;;
16954;SDS011;8594;52.052;8.354;2023-02-28T09:37:07;5.30;;;3.37;;
16954;SDS011;8594;52.052;8.354;2023-02-28T09:39:34;5.50;;;3.40;;
16954;SDS011;8594;52.052;8.354;2023-02-28T09:42:00;4.93;;;3.10;;
16954;SDS011;8594;52.052;8.354;2023-02-28T09:44:30;6.20;;;3.43;;
16954;SDS011;8594;52.052;8.354;2023-02-28T09:47:05;11.93;;;3.60;;
16954;SDS011;8594;52.052;8.354;2023-02-28T09:49:43;9.00;;;3.83;;
16954;SDS011;8594;52.052;8.354;2023-02-28T09:52:16;7.97;;;3.10;;
16954;SDS011;8594;52.052;8.354;2023-02-28T09:54:46;5.57;;;3.17;;
16954;SDS011;8594;52.052;8.354;2023-02-28T09:57:14;7.47;;;3.40;;
16954;SDS011;8594;52.052;8.354;2023-02-28T09:59:56;8.07;;;3.13;;
16954;SDS011;8594;52.052;8.354;2023-02-28T10:02:41;5.07;;;3.10;;
16954;SDS011;8594;52.052;8.354;2023-02-28T10:05:23;5.77;;;3.20;;
16954;SDS011;8594;52.052;8.354;2023-02-28T10:08:02;4.37;;;3.00;;
16954;SDS011;8594;52.052;8.354;2023-02-28T10:10:39;4.97;;;3.20;;
16954;SDS011;8594;52.052;8.354;2023-02-28T10:13:16;5.57;;;2.83;;
16954;SDS011;8594;52.052;8.354;2023-02-28T10:15:52;3.30;;;2.70;;
16954;SDS011;8594;52.052;8.354;2023-02-28T10:18:25;5.13;;;2.80;;
16954;SDS011;8594;52.052;8.354;2023-02-28T10:20:59;5.10;;;3.00;;
16954;SDS011;8594;52.052;8.354;2023-02-28T10:23:28;7.80;;;2.93;;
16954;SDS011;8594;52.052;8.354;2023-02-28T10:26:05;5.60;;;2.87;;
16954;SDS011;8594;52.052;8.354;2023-02-28T10:28:40;8.00;;;2.63;;
16954;SDS011;8594;52.052;8.354;2023-02-28T10:31:08;5.00;;;3.40;;
16954;SDS011;8594;52.052;8.354;2023-02-28T10:33:41;6.17;;;2.43;;
16954;SDS011;8594;52.052;8.354;2023-02-28T10:36:09;4.17;;;2.50;;
16954;SDS011;8594;52.052;8.354;2023-02-28T10:38:43;4.50;;;2.43;;
16954;SDS011;8594;52.052;8.354;2023-02-28T10:41:13;3.80;;;2.27;;
16954;SDS011;8594;52.052;8.354;2023-02-28T10:43:42;4.13;;;2.67;;
16954;SDS011;8594;52.052;8.354;2023-02-28T10:46:12;4.70;;;2.57;;
16954;SDS011;8594;52.052;8.354;2023-02-28T10:49:02;3.57;;;2.23;;
16954;SDS011;8594;52.052;8.354;2023-02-28T10:51:35;4.10;;;2.07;;
16954;SDS011;8594;52.052;8.354;2023-02-28T10:54:15;4.27;;;2.10;;
16954;SDS011;8594;52.052;8.354;2023-02-28T10:56:44;4.10;;;2.10;;
16954;SDS011;8594;52.052;8.354;2023-02-28T10:59:26;4.90;;;2.17;;
16954;SDS011;8594;52.052;8.354;2023-02-28T11:01:56;5.60;;;2.10;;
16954;SDS011;8594;52.052;8.354;2023-02-28T11:04:33;2.00;;;1.50;;
16954;SDS011;8594;52.052;8.354;2023-02-28T11:07:05;2.63;;;1.63;;
16954;SDS011;8594;52.052;8.354;2023-02-28T11:09:46;4.33;;;1.87;;
16954;SDS011;8594;52.052;8.354;2023-02-28T11:12:19;4.70;;;2.03;;
16954;SDS011;8594;52.052;8.354;2023-02-28T11:14:49;3.00;;;1.70;;
16954;SDS011;8594;52.052;8.354;2023-02-28T11:17:22;4.07;;;1.80;;
16954;SDS011;8594;52.052;8.354;2023-02-28T11:19:53;4.10;;;1.90;;
16954;SDS011;8594;52.052;8.354;2023-02-28T11:22:23;6.40;;;2.93;;
16954;SDS011;8594;52.052;8.354;2023-02-28T11:24:57;5.50;;;2.57;;
16954;SDS011;8594;52.052;8.354;2023-02-28T11:27:42;2.37;;;1.80;;
16954;SDS011;8594;52.052;8.354;2023-02-28T11:30:24;4.17;;;2.13;;
16954;SDS011;8594;52.052;8.354;2023-02-28T11:32:57;2.70;;;1.97;;
16954;SDS011;8594;52.052;8.354;2023-02-28T11:35:26;4.43;;;2.00;;
16954;SDS011;8594;52.052;8.354;2023-02-28T11:37:57;6.77;;;2.00;;
16954;SDS011;8594;52.052;8.354;2023-02-28T11:40:28;3.73;;;1.90;;
16954;SDS011;8594;52.052;8.354;2023-02-28T11:43:12;2.93;;;1.80;;
16954;SDS011;8594;52.052;8.354;2023-02-28T11:45:56;4.37;;;1.70;;
16954;SDS011;8594;52.052;8.354;2023-02-28T11:48:42;4.63;;;2.03;;
16954;SDS011;8594;52.052;8.354;2023-02-28T11:51:21;4.73;;;2.10;;
16954;SDS011;8594;52.052;8.354;2023-02-28T11:53:58;3.30;;;1.90;;
16954;SDS011;8594;52.052;8.354;2023-02-28T11:56:57;5.07;;;1.80;;
16954;SDS011;8594;52.052;8.354;2023-02-28T11:59:38;2.63;;;1.73;;
16954;SDS011;8594;52.052;8.354;2023-02-28T12:02:25;2.93;;;1.90;;
16954;SDS011;8594;52.052;8.354;2023-02-28T12:05:10;4.57;;;1.90;;
16954;SDS011;8594;52.052;8.354;2023-02-28T12:07:52;5.93;;;1.93;;
16954;SDS011;8594;52.052;8.354;2023-02-28T12:10:33;3.53;;;2.20;;
16954;SDS011;8594;52.052;8.354;2023-02-28T12:13:15;4.60;;;2.00;;
16954;SDS011;8594;52.052;8.354;2023-02-28T12:19:03;3.77;;;2.00;;
16954;SDS011;8594;52.052;8.354;2023-02-28T12:21:46;7.20;;;1.83;;
16954;SDS011;8594;52.052;8.354;2023-02-28T12:24:43;3.60;;;2.10;;
16954;SDS011;8594;52.052;8.354;2023-02-28T12:27:28;3.87;;;2.07;;
16954;SDS011;8594;52.052;8.354;2023-02-28T12:30:03;4.13;;;2.07;;
16954;SDS011;8594;52.052;8.354;2023-02-28T12:32:43;3.50;;;1.97;;
16954;SDS011;8594;52.052;8.354;2023-02-28T12:35:18;3.83;;;1.90;;
16954;SDS011;8594;52.052;8.354;2023-02-28T12:37:54;3.37;;;2.13;;
16954;SDS011;8594;52.052;8.354;2023-02-28T12:40:29;3.70;;;2.10;;
16954;SDS011;8594;52.052;8.354;2023-02-28T12:43:09;2.20;;;1.90;;
16954;SDS011;8594;52.052;8.354;2023-02-28T12:45:43;4.27;;;1.83;;
16954;SDS011;8594;52.052;8.354;2023-02-28T12:48:18;5.50;;;2.20;;
16954;SDS011;8594;52.052;8.354;2023-02-28T12:50:53;3.67;;;1.97;;
16954;SDS011;8594;52.052;8.354;2023-02-28T12:53:23;4.00;;;2.30;;
16954;SDS011;8594;52.052;8.354;2023-02-28T12:56:03;4.47;;;1.83;;
16954;SDS011;8594;52.052;8.354;2023-02-28T12:58:42;4.03;;;2.23;;
16954;SDS011;8594;52.052;8.354;2023-02-28T13:01:19;7.40;;;2.50;;
16954;SDS011;8594;52.052;8.354;2023-02-28T13:04:29;7.57;;;2.43;;
16954;SDS011;8594;52.052;8.354;2023-02-28T13:07:24;2.60;;;2.00;;
16954;SDS011;8594;52.052;8.354;2023-02-28T13:10:24;6.93;;;2.10;;
16954;SDS011;8594;52.052;8.354;2023-02-28T13:13:05;3.30;;;2.10;;
16954;SDS011;8594;52.052;8.354;2023-02-28T13:15:32;3.00;;;2.00;;
16954;SDS011;8594;52.052;8.354;2023-02-28T13:18:04;4.97;;;2.33;;
16954;SDS011;8594;52.052;8.354;2023-02-28T13:20:33;4.93;;;2.30;;
16954;SDS011;8594;52.052;8.354;2023-02-28T13:23:03;4.20;;;2.30;;
16954;SDS011;8594;52.052;8.354;2023-02-28T13:44:10;3.13;;;2.00;;
16954;SDS011;8594;52.052;8.354;2023-02-28T13:50:15;4.53;;;2.43;;
16954;SDS011;8594;52.052;8.354;2023-02-28T13:53:00;4.13;;;2.27;;
16954;SDS011;8594;52.052;8.354;2023-02-28T13:56:07;8.53;;;2.40;;
16954;SDS011;8594;52.052;8.354;2023-02-28T13:58:52;3.17;;;2.17;;
16954;SDS011;8594;52.052;8.354;2023-02-28T14:01:31;5.30;;;2.10;;
16954;SDS011;8594;52.052;8.354;2023-02-28T14:07:19;6.57;;;2.93;;
16954;SDS011;8594;52.052;8.354;2023-02-28T14:09:57;4.40;;;2.50;;
16954;SDS011;8594;52.052;8.354;2023-02-28T14:18:21;5.37;;;2.30;;
16954;SDS011;8594;52.052;8.354;2023-02-28T14:20:54;4.70;;;2.73;;
16954;SDS011;8594;52.052;8.354;2023-02-28T14:23:45;3.97;;;2.50;;
16954;SDS011;8594;52.052;8.354;2023-02-28T14:26:53;7.60;;;2.90;;
16954;SDS011;8594;52.052;8.354;2023-02-28T14:33:15;6.77;;;2.80;;
16954;SDS011;8594;52.052;8.354;2023-02-28T14:35:58;3.77;;;2.70;;
16954;SDS011;8594;52.052;8.354;2023-02-28T14:38:35;2.93;;;1.90;;
16954;SDS011;8594;52.052;8.354;2023-02-28T14:41:12;4.40;;;2.60;;
16954;SDS011;8594;52.052;8.354;2023-02-28T14:43:52;7.17;;;2.07;;
16954;SDS011;8594;52.052;8.354;2023-02-28T14:46:23;3.87;;;2.30;;
16954;SDS011;8594;52.052;8.354;2023-02-28T14:48:56;4.77;;;2.53;;
16954;SDS011;8594;52.052;8.354;2023-02-28T14:51:23;5.87;;;2.60;;
16954;SDS011;8594;52.052;8.354;2023-02-28T14:53:55;4.00;;;2.00;;
16954;SDS011;8594;52.052;8.354;2023-02-28T14:56:27;5.27;;;2.60;;
16954;SDS011;8594;52.052;8.354;2023-02-28T14:59:01;3.53;;;2.50;;
16954;SDS011;8594;52.052;8.354;2023-02-28T15:01:27;6.57;;;2.53;;
16954;SDS011;8594;52.052;8.354;2023-02-28T15:03:57;3.77;;;2.57;;
16954;SDS011;8594;52.052;8.354;2023-02-28T15:06:27;5.17;;;2.83;;
16954;SDS011;8594;52.052;8.354;2023-02-28T15:09:08;6.67;;;2.57;;
16954;SDS011;8594;52.052;8.354;2023-02-28T15:11:40;6.83;;;2.83;;
16954;SDS011;8594;52.052;8.354;2023-02-28T15:14:20;4.93;;;2.90;;
16954;SDS011;8594;52.052;8.354;2023-02-28T15:16:57;3.70;;;2.47;;
16954;SDS011;8594;52.052;8.354;2023-02-28T15:19:31;4.60;;;2.57;;
16954;SDS011;8594;52.052;8.354;2023-02-28T15:22:04;4.97;;;2.10;;
16954;SDS011;8594;52.052;8.354;2023-02-28T15:24:40;5.13;;;2.50;;
16954;SDS011;8594;52.052;8.354;2023-02-28T15:27:11;9.47;;;2.77;;
16954;SDS011;8594;52.052;8.354;2023-02-28T15:29:47;6.20;;;2.27;;
16954;SDS011;8594;52.052;8.354;2023-02-28T15:32:27;3.60;;;2.37;;
16954;SDS011;8594;52.052;8.354;2023-02-28T15:34:56;4.20;;;2.27;;
16954;SDS011;8594;52.052;8.354;2023-02-28T15:37:29;5.17;;;2.60;;
16954;SDS011;8594;52.052;8.354;2023-02-28T15:40:10;4.23;;;2.40;;
16954;SDS011;8594;52.052;8.354;2023-02-28T15:42:58;3.33;;;2.23;;
16954;SDS011;8594;52.052;8.354;2023-02-28T15:45:35;2.63;;;2.17;;
16954;SDS011;8594;52.052;8.354;2023-02-28T15:48:09;5.73;;;2.40;;
16954;SDS011;8594;52.052;8.354;2023-02-28T15:50:46;5.93;;;2.70;;
16954;SDS011;8594;52.052;8.354;2023-02-28T15:53:16;5.00;;;2.57;;
16954;SDS011;8594;52.052;8.354;2023-02-28T15:55:55;5.27;;;2.77;;
16954;SDS011;8594;52.052;8.354;2023-02-28T15:58:27;5.40;;;2.60;;
16954;SDS011;8594;52.052;8.354;2023-02-28T16:03:51;6.93;;;2.60;;
16954;SDS011;8594;52.052;8.354;2023-02-28T16:06:34;5.00;;;2.93;;
16954;SDS011;8594;52.052;8.354;2023-02-28T16:09:05;7.53;;;2.80;;
16954;SDS011;8594;52.052;8.354;2023-02-28T16:11:37;9.87;;;3.00;;
16954;SDS011;8594;52.052;8.354;2023-02-28T16:14:16;3.80;;;2.80;;